createdAt,value
2022-10-17T00:00:39.530Z,45.47
2022-10-17T00:03:06.333Z,45.30
2022-10-17T00:05:33.502Z,45.17
2022-10-17T00:08:00.211Z,46.00
2022-10-17T00:10:26.965Z,48.83
2022-10-17T00:12:53.629Z,44.92
2022-10-17T00:15:21.756Z,46.95
2022-10-17T00:17:48.483Z,45.95
2022-10-17T00:20:16.207Z,46.95
2022-10-17T00:22:43.376Z,48.33
2022-10-17T00:25:10.273Z,47.38
2022-10-17T00:27:39.106Z,45.35
2022-10-17T00:30:08.549Z,46.00
2022-10-17T00:32:35.250Z,45.72
2022-10-17T00:35:02.439Z,44.85
2022-10-17T00:37:31.553Z,45.55
2022-10-17T00:39:58.499Z,45.33
2022-10-17T00:42:26.096Z,45.55
2022-10-17T00:45:01.866Z,43.00
2022-10-17T00:49:55.834Z,40.65
2022-10-17T00:52:26.493Z,42.20
2022-10-17T00:55:13.423Z,42.25
2022-10-17T00:57:44.304Z,42.78
2022-10-17T01:00:11.879Z,42.83
2022-10-17T01:02:39.389Z,43.17
2022-10-17T01:05:07.729Z,42.00
2022-10-17T01:07:37.232Z,43.28
2022-10-17T01:10:06.123Z,42.85
2022-10-17T01:13:07.235Z,43.33
2022-10-17T01:16:11.608Z,41.67
2022-10-17T01:19:16.035Z,42.85
2022-10-17T01:21:56.361Z,40.97
2022-10-17T01:24:37.031Z,41.42
2022-10-17T01:27:21.990Z,42.90
2022-10-17T01:30:25.054Z,41.90
2022-10-17T01:33:21.162Z,41.88
2022-10-17T01:35:55.362Z,42.70
2022-10-17T01:38:34.439Z,42.17
2022-10-17T01:41:10.136Z,40.67
2022-10-17T01:44:03.562Z,41.17
2022-10-17T01:46:41.233Z,42.60
2022-10-17T01:49:11.021Z,40.08
2022-10-17T01:51:48.108Z,41.70
2022-10-17T01:54:18.595Z,42.95
2022-10-17T01:56:48.048Z,42.22
2022-10-17T01:59:22.320Z,41.90
2022-10-17T02:01:52.486Z,43.72
2022-10-17T02:04:19.790Z,42.50
2022-10-17T02:06:46.552Z,43.35
2022-10-17T02:09:20.681Z,43.30
2022-10-17T02:12:15.249Z,43.80
2022-10-17T02:14:53.774Z,42.38
2022-10-17T02:17:50.667Z,43.00
2022-10-17T02:20:21.991Z,43.20
2022-10-17T02:23:16.597Z,42.17
2022-10-17T02:25:54.228Z,41.78
2022-10-17T02:28:26.845Z,43.40
2022-10-17T02:30:58.051Z,42.88
2022-10-17T02:33:46.013Z,42.20
2022-10-17T02:36:18.875Z,41.88
2022-10-17T02:38:46.451Z,42.00
2022-10-17T02:41:16.666Z,44.38
2022-10-17T02:43:45.808Z,43.88
2022-10-17T02:46:20.806Z,44.97
2022-10-17T02:48:54.848Z,44.20
2022-10-17T02:51:21.506Z,44.42
2022-10-17T02:54:26.650Z,45.20
2022-10-17T02:57:01.515Z,43.17
2022-10-17T02:59:30.383Z,43.88
2022-10-17T03:01:57.210Z,45.00
2022-10-17T03:04:23.927Z,44.60
2022-10-17T03:06:50.700Z,44.17
2022-10-17T03:09:17.441Z,44.22
2022-10-17T03:11:44.476Z,45.33
2022-10-17T03:14:11.164Z,42.33
2022-10-17T03:16:37.887Z,44.15
2022-10-17T03:19:05.046Z,44.85
2022-10-17T03:21:31.830Z,44.10
2022-10-17T03:23:58.525Z,47.72
2022-10-17T03:26:25.513Z,46.17
2022-10-17T03:28:54.428Z,46.13
2022-10-17T03:31:21.931Z,45.95
2022-10-17T03:33:48.692Z,43.80
2022-10-17T03:36:17.824Z,46.17
2022-10-17T03:38:44.889Z,44.95
2022-10-17T03:41:12.196Z,45.35
2022-10-17T03:43:39.649Z,45.95
2022-10-17T03:46:06.823Z,45.92
2022-10-17T03:48:34.152Z,46.72
2022-10-17T03:51:06.783Z,44.40
2022-10-17T03:53:34.332Z,45.47
2022-10-17T03:56:13.149Z,47.22
2022-10-17T03:58:40.507Z,45.53
2022-10-17T04:01:09.206Z,47.75
2022-10-17T04:03:36.130Z,45.85
2022-10-17T04:06:04.043Z,46.13
2022-10-17T04:08:31.190Z,47.67
2022-10-17T04:11:06.094Z,47.58
2022-10-17T04:13:33.555Z,46.63
2022-10-17T04:16:03.537Z,46.42
2022-10-17T04:18:30.426Z,47.65
2022-10-17T04:20:57.592Z,46.85
2022-10-17T04:23:26.440Z,47.72
2022-10-17T04:25:57.129Z,45.55
2022-10-17T04:28:25.072Z,47.95
2022-10-17T04:31:01.174Z,46.67
2022-10-17T04:33:28.226Z,48.35
2022-10-17T04:35:59.298Z,45.88
2022-10-17T04:38:28.612Z,46.85
2022-10-17T04:41:03.195Z,48.33
2022-10-17T04:43:31.526Z,46.60
2022-10-17T04:45:59.240Z,48.33
2022-10-17T04:48:25.887Z,50.47
2022-10-17T04:50:59.598Z,50.00
2022-10-17T04:53:27.056Z,46.92
2022-10-17T04:55:54.452Z,48.40
2022-10-17T04:58:22.646Z,47.25
2022-10-17T05:00:49.484Z,46.50
2022-10-17T05:03:16.988Z,44.67
2022-10-17T05:05:44.020Z,47.17
2022-10-17T05:08:12.110Z,46.92
2022-10-17T05:10:41.259Z,47.05
2022-10-17T05:13:08.940Z,45.72
2022-10-17T05:15:36.505Z,45.35
2022-10-17T05:18:04.339Z,44.88
2022-10-17T05:20:31.519Z,44.42
2022-10-17T05:23:02.168Z,42.63
2022-10-17T05:25:28.892Z,43.17
2022-10-17T05:27:55.700Z,43.63
2022-10-17T05:30:22.656Z,44.25
2022-10-17T05:32:53.845Z,42.50
2022-10-17T05:35:21.767Z,44.05
2022-10-17T05:37:48.866Z,43.72
2022-10-17T05:40:15.772Z,41.67
2022-10-17T05:42:49.199Z,41.65
2022-10-17T05:45:16.371Z,41.67
2022-10-17T05:47:43.090Z,42.15
2022-10-17T05:50:10.376Z,41.17
2022-10-17T05:52:37.110Z,40.88
2022-10-17T05:55:05.463Z,39.95
2022-10-17T05:57:32.485Z,42.67
2022-10-17T05:59:59.304Z,41.30
2022-10-17T06:02:26.125Z,42.45
2022-10-17T06:04:53.041Z,42.20
2022-10-17T06:07:19.727Z,42.40
2022-10-17T06:12:18.005Z,41.67
2022-10-17T06:14:44.753Z,41.35
2022-10-17T06:17:15.776Z,40.45
2022-10-17T06:19:44.560Z,40.92
2022-10-17T06:22:11.564Z,40.92
2022-10-17T06:24:38.268Z,42.28
2022-10-17T06:27:09.445Z,42.78
2022-10-17T06:29:39.258Z,40.90
2022-10-17T06:32:08.685Z,41.55
2022-10-17T06:34:38.112Z,40.67
2022-10-17T06:37:05.136Z,41.30
2022-10-17T06:39:34.126Z,38.60
2022-10-17T06:42:01.640Z,40.33
2022-10-17T06:44:31.876Z,38.70
2022-10-17T06:47:00.051Z,38.67
2022-10-17T06:49:27.501Z,39.08
2022-10-17T06:51:54.611Z,39.90
2022-10-17T06:54:21.422Z,40.10
2022-10-17T06:56:48.203Z,41.45
2022-10-17T06:59:15.728Z,41.03
2022-10-17T07:01:46.120Z,37.22
2022-10-17T07:04:14.408Z,39.78
2022-10-17T07:06:41.144Z,39.75
2022-10-17T07:09:08.214Z,40.33
2022-10-17T07:11:35.201Z,42.03
2022-10-17T07:14:02.493Z,40.75
2022-10-17T07:16:29.590Z,40.33
2022-10-17T07:18:56.535Z,40.13
2022-10-17T07:21:23.651Z,41.15
2022-10-17T07:23:50.473Z,41.28
2022-10-17T07:26:18.960Z,40.60
2022-10-17T07:28:47.106Z,40.25
2022-10-17T07:31:16.911Z,39.55
2022-10-17T07:33:44.386Z,42.13
2022-10-17T07:36:11.887Z,41.65
2022-10-17T07:38:39.613Z,42.00
2022-10-17T07:41:08.786Z,40.72
2022-10-17T07:43:36.751Z,42.25
2022-10-17T07:46:05.392Z,44.53
2022-10-17T07:48:32.399Z,42.40
2022-10-17T07:51:02.672Z,46.13
2022-10-17T07:53:29.675Z,44.80
2022-10-17T07:55:56.429Z,46.83
2022-10-17T07:58:23.885Z,46.92
2022-10-17T08:00:51.192Z,45.47
2022-10-17T08:03:17.979Z,47.53
2022-10-17T08:05:44.884Z,49.83
2022-10-17T08:08:11.566Z,50.63
2022-10-17T08:10:38.265Z,50.75
2022-10-17T08:13:05.003Z,47.60
2022-10-17T08:15:32.186Z,48.90
2022-10-17T08:33:02.945Z,51.58
2022-10-17T08:35:29.668Z,53.72
2022-10-17T08:38:01.497Z,52.38
2022-10-17T08:40:33.640Z,51.60
2022-10-17T08:43:15.770Z,54.40
2022-10-17T08:45:48.734Z,52.88
2022-10-17T08:48:21.606Z,52.28
2022-10-17T08:51:03.006Z,49.78
2022-10-17T08:53:36.659Z,51.25
2022-10-17T08:56:19.485Z,49.78
2022-10-17T08:58:51.806Z,50.47
2022-10-17T09:01:33.961Z,51.05
2022-10-17T09:04:19.332Z,50.58
2022-10-17T09:07:18.465Z,52.72
2022-10-17T09:09:55.366Z,54.45
2022-10-17T09:12:44.680Z,60.35
2022-10-17T09:15:26.218Z,63.75
2022-10-17T09:18:04.497Z,63.35
2022-10-17T09:20:34.435Z,62.88
2022-10-17T09:23:12.223Z,60.75
2022-10-17T09:25:52.784Z,62.58
2022-10-17T09:28:29.509Z,62.53
2022-10-17T09:30:58.686Z,60.78
2022-10-17T09:33:54.417Z,61.42
2022-10-17T09:38:56.683Z,58.63
2022-10-17T09:41:47.372Z,60.80
2022-10-17T09:44:31.204Z,58.17
2022-10-17T09:47:25.707Z,54.90
2022-10-17T09:49:52.449Z,57.17
2022-10-17T09:52:32.009Z,55.47
2022-10-17T09:55:04.544Z,55.58
2022-10-17T09:58:10.371Z,52.83
2022-10-17T10:00:43.151Z,49.67
2022-10-17T10:03:27.198Z,52.05
2022-10-17T10:06:09.226Z,51.35
2022-10-17T10:08:49.272Z,51.13
2022-10-17T10:11:17.675Z,57.00
2022-10-17T10:13:47.215Z,50.92
2022-10-17T10:16:31.565Z,48.00
2022-10-17T10:18:58.614Z,50.72
2022-10-17T10:21:27.428Z,51.83
2022-10-17T10:24:09.807Z,49.47
2022-10-17T10:26:43.718Z,50.05
2022-10-17T10:29:34.209Z,48.38
2022-10-17T10:32:23.874Z,52.42
2022-10-17T10:34:53.060Z,46.47
2022-10-17T10:37:38.195Z,44.58
2022-10-17T10:40:15.555Z,45.45
2022-10-17T10:42:42.661Z,48.72
2022-10-17T10:45:35.894Z,47.42
2022-10-17T10:48:24.523Z,43.30
2022-10-17T10:51:14.452Z,44.97
2022-10-17T10:54:35.625Z,50.45
2022-10-17T10:57:07.342Z,47.95
2022-10-17T10:59:43.032Z,44.22
2022-10-17T11:02:30.243Z,49.45
2022-10-17T11:05:03.257Z,46.88
2022-10-17T11:07:38.418Z,47.92
2022-10-17T11:12:54.778Z,45.13
2022-10-17T11:15:30.369Z,43.80
2022-10-17T11:18:06.637Z,45.42
2022-10-17T11:20:48.462Z,43.50
2022-10-17T11:23:21.627Z,40.05
2022-10-17T11:25:54.518Z,41.55
2022-10-17T11:28:24.809Z,43.22
2022-10-17T11:31:04.462Z,40.78
2022-10-17T11:34:06.605Z,41.33
2022-10-17T11:36:39.093Z,42.42
2022-10-17T11:39:31.699Z,42.80
2022-10-17T11:42:10.180Z,41.08
2022-10-17T11:44:41.884Z,34.58
2022-10-17T11:47:32.813Z,39.28
2022-10-17T11:53:14.801Z,40.38
2022-10-17T11:55:42.755Z,34.88
2022-10-17T11:58:15.355Z,32.25
2022-10-17T12:01:07.967Z,40.65
2022-10-17T12:04:07.797Z,39.88
2022-10-17T12:06:40.316Z,40.40
2022-10-17T12:09:15.931Z,39.25
2022-10-17T12:11:54.385Z,33.30
2022-10-17T12:14:37.876Z,41.35
2022-10-17T12:17:20.872Z,41.50
2022-10-17T12:19:47.662Z,38.70
2022-10-17T12:22:26.028Z,22.58
2022-10-17T12:25:02.404Z,37.45
2022-10-17T12:27:38.176Z,38.13
2022-10-17T12:30:25.938Z,35.22
2022-10-17T12:33:08.002Z,35.33
2022-10-17T12:35:36.826Z,32.30
2022-10-17T12:38:25.515Z,25.25
2022-10-17T12:40:54.575Z,35.83
2022-10-17T12:43:27.527Z,28.55
2022-10-17T12:45:56.112Z,35.40
2022-10-17T12:48:37.775Z,32.63
2022-10-17T12:51:36.076Z,27.42
2022-10-17T12:54:16.313Z,33.70
2022-10-17T12:56:48.543Z,37.55
2022-10-17T12:59:17.675Z,29.42
2022-10-17T13:01:47.830Z,31.13
2022-10-17T13:04:15.497Z,27.10
2022-10-17T13:06:48.554Z,34.10
2022-10-17T13:09:20.936Z,25.77
2022-10-17T13:11:50.295Z,25.17
2022-10-17T13:14:20.760Z,32.08
2022-10-17T13:16:56.230Z,32.42
2022-10-17T13:19:26.210Z,33.75
2022-10-17T13:21:58.720Z,24.35
2022-10-17T13:24:37.998Z,26.83
2022-10-17T13:27:07.024Z,28.63
2022-10-17T13:29:34.039Z,28.75
2022-10-17T13:32:06.867Z,32.05
2022-10-17T13:34:34.201Z,33.70
2022-10-17T13:37:04.055Z,32.25
2022-10-17T13:39:55.147Z,34.17
2022-10-17T13:42:29.494Z,27.50
2022-10-17T13:44:58.278Z,26.30
2022-10-17T13:47:28.056Z,28.02
2022-10-17T13:49:56.156Z,28.58
2022-10-17T13:52:28.076Z,31.20
2022-10-17T13:54:56.801Z,33.53
2022-10-17T13:57:32.156Z,29.05
2022-10-17T14:00:09.998Z,28.88
2022-10-17T14:02:40.691Z,29.13
2022-10-17T14:05:19.031Z,31.20
2022-10-17T14:08:12.066Z,34.92
2022-10-17T14:10:41.215Z,30.45
2022-10-17T14:13:19.342Z,29.00
2022-10-17T14:15:46.624Z,29.55
2022-10-17T14:18:21.711Z,30.13
2022-10-17T14:23:39.948Z,34.10
2022-10-17T14:26:15.895Z,26.63
2022-10-17T14:28:48.704Z,29.85
2022-10-17T14:31:15.352Z,27.70
2022-10-17T14:33:50.625Z,32.63
2022-10-17T14:36:18.519Z,30.85
2022-10-17T14:38:51.846Z,31.08
2022-10-17T14:41:47.563Z,31.65
2022-10-17T14:44:20.602Z,29.55
2022-10-17T14:46:51.452Z,29.23
2022-10-17T14:49:39.452Z,25.90
2022-10-17T14:52:18.297Z,27.75
2022-10-17T14:54:47.797Z,25.50
2022-10-17T14:57:22.645Z,28.75
2022-10-17T14:59:54.360Z,27.55
2022-10-17T15:02:22.219Z,26.50
2022-10-17T15:04:48.996Z,27.42
2022-10-17T15:07:17.452Z,30.48
2022-10-17T15:09:47.072Z,30.63
2022-10-17T15:12:19.583Z,31.02
2022-10-17T15:14:47.840Z,32.55
2022-10-17T15:17:22.496Z,30.50
2022-10-17T15:19:50.679Z,28.00
2022-10-17T15:22:18.193Z,27.80
2022-10-17T15:24:48.350Z,28.05
2022-10-17T15:27:21.260Z,29.35
2022-10-17T15:29:48.746Z,28.15
2022-10-17T15:32:16.142Z,25.33
2022-10-17T15:34:42.916Z,24.35
2022-10-17T15:37:17.507Z,25.50
2022-10-17T15:39:45.762Z,22.95
2022-10-17T15:42:12.883Z,21.92
2022-10-17T15:44:43.873Z,23.92
2022-10-17T15:47:29.322Z,22.30
2022-10-17T15:52:24.426Z,25.55
2022-10-17T15:54:51.673Z,24.83
2022-10-17T15:57:21.735Z,27.67
2022-10-17T15:59:50.298Z,27.85
2022-10-17T16:02:18.950Z,28.73
2022-10-17T16:04:46.508Z,30.40
2022-10-17T16:07:13.220Z,29.00
2022-10-17T16:09:40.123Z,28.90
2022-10-17T16:12:14.347Z,30.35
2022-10-17T16:14:41.214Z,26.48
2022-10-17T16:17:13.839Z,29.05
2022-10-17T16:19:41.156Z,29.88
2022-10-17T16:22:24.860Z,27.73
2022-10-17T16:24:58.178Z,26.60
2022-10-17T16:27:25.419Z,26.95
2022-10-17T16:29:52.199Z,28.30
2022-10-17T16:32:18.925Z,26.67
2022-10-17T16:34:45.671Z,27.05
2022-10-17T16:37:12.398Z,29.08
2022-10-17T16:39:39.146Z,30.10
2022-10-17T16:42:05.925Z,26.65
2022-10-17T16:44:32.706Z,23.75
2022-10-17T16:46:59.603Z,24.98
2022-10-17T16:49:26.348Z,25.73
2022-10-17T16:51:53.141Z,24.77
2022-10-17T16:54:20.073Z,25.88
2022-10-17T16:56:46.776Z,26.05
2022-10-17T16:59:13.420Z,28.25
2022-10-17T17:01:40.182Z,26.85
2022-10-17T17:04:08.983Z,27.40
2022-10-17T17:06:36.969Z,27.45
2022-10-17T17:09:03.888Z,26.90
2022-10-17T17:11:31.400Z,28.75
2022-10-17T17:14:01.232Z,27.95
2022-10-17T17:16:29.924Z,27.98
2022-10-17T17:19:05.975Z,29.70
2022-10-17T17:21:34.199Z,27.50
2022-10-17T17:24:02.327Z,27.38
2022-10-17T17:26:32.522Z,27.48
2022-10-17T17:29:00.736Z,27.60
2022-10-17T17:31:30.260Z,28.83
2022-10-17T17:33:57.292Z,30.35
2022-10-17T17:36:27.062Z,30.90
2022-10-17T17:38:57.991Z,30.10
2022-10-17T17:41:25.173Z,29.63
2022-10-17T17:43:52.299Z,28.48
2022-10-17T17:46:21.027Z,29.13
2022-10-17T17:48:49.116Z,28.13
2022-10-17T17:51:18.640Z,28.83
2022-10-17T17:53:45.840Z,27.83
2022-10-17T17:56:14.114Z,29.73
2022-10-17T17:58:45.796Z,31.85
2022-10-17T18:01:22.131Z,30.95
2022-10-17T18:03:50.873Z,33.65
2022-10-17T18:06:19.382Z,33.22
2022-10-17T18:08:49.657Z,31.15
2022-10-17T18:11:19.634Z,32.47
2022-10-17T18:13:54.118Z,29.83
2022-10-17T18:16:21.073Z,31.02
2022-10-17T18:18:47.861Z,31.67
2022-10-17T18:21:15.060Z,32.88
2022-10-17T18:23:43.393Z,32.63
2022-10-17T18:26:10.500Z,30.58
2022-10-17T18:28:39.056Z,32.75
2022-10-17T18:31:28.678Z,31.30
2022-10-17T18:33:57.856Z,31.52
2022-10-17T18:36:26.178Z,31.10
2022-10-17T18:38:54.313Z,30.75
2022-10-17T18:41:24.460Z,31.13
2022-10-17T18:43:52.544Z,33.72
2022-10-17T18:46:22.143Z,32.78
2022-10-17T18:48:50.342Z,33.13
2022-10-17T18:51:19.535Z,32.28
2022-10-17T18:53:48.772Z,32.20
2022-10-17T18:56:16.251Z,33.08
2022-10-17T18:58:43.372Z,32.47
2022-10-17T19:01:22.655Z,34.47
2022-10-17T19:03:51.209Z,34.50
2022-10-17T19:06:25.677Z,35.80
2022-10-17T19:08:52.706Z,35.45
2022-10-17T19:11:22.436Z,35.15
2022-10-17T19:13:49.784Z,35.67
2022-10-17T19:16:25.285Z,34.13
2022-10-17T19:21:24.257Z,33.42
2022-10-17T19:23:56.679Z,35.38
2022-10-17T19:26:24.479Z,33.13
2022-10-17T19:28:53.633Z,34.13
2022-10-17T19:31:26.443Z,33.60
2022-10-17T19:33:53.938Z,35.15
2022-10-17T19:36:22.623Z,37.55
2022-10-17T19:38:49.588Z,36.40
2022-10-17T19:41:16.664Z,35.22
2022-10-17T19:43:44.491Z,35.55
2022-10-17T19:46:14.886Z,35.90
2022-10-17T19:48:42.056Z,35.08
2022-10-17T19:51:12.191Z,34.25
2022-10-17T19:53:39.218Z,36.03
2022-10-17T19:56:06.549Z,36.67
2022-10-17T19:58:36.155Z,36.63
2022-10-17T20:01:05.754Z,36.35
2022-10-17T20:03:32.531Z,36.65
2022-10-17T20:05:59.208Z,35.65
2022-10-17T20:11:01.766Z,36.17
2022-10-17T20:13:28.536Z,36.00
2022-10-17T20:15:56.621Z,36.60
2022-10-17T20:18:24.191Z,36.97
2022-10-17T20:20:50.902Z,38.35
2022-10-17T20:23:17.671Z,37.17
2022-10-17T20:25:44.463Z,37.33
2022-10-17T20:28:11.323Z,39.47
2022-10-17T20:30:42.574Z,36.35
2022-10-17T20:33:09.313Z,39.00
2022-10-17T20:35:42.812Z,39.08
2022-10-17T20:38:10.877Z,39.17
2022-10-17T20:40:38.226Z,37.15
2022-10-17T20:43:06.934Z,37.65
2022-10-17T20:45:51.005Z,39.90
2022-10-17T20:48:18.895Z,38.13
2022-10-17T20:50:45.705Z,39.75
2022-10-17T20:53:42.569Z,37.35
2022-10-17T20:56:24.660Z,38.20
2022-10-17T20:58:56.419Z,38.10
2022-10-17T21:01:24.131Z,39.08
2022-10-17T21:03:51.338Z,39.00
2022-10-17T21:06:19.269Z,38.58
2022-10-17T21:08:47.028Z,39.10
2022-10-17T21:11:25.747Z,38.03
2022-10-17T21:14:01.943Z,38.67
2022-10-17T21:16:30.684Z,38.63
2022-10-17T21:18:57.943Z,38.83
2022-10-17T21:21:28.620Z,40.03
2022-10-17T21:23:58.229Z,39.20
2022-10-17T21:26:25.032Z,39.70
2022-10-17T21:28:51.852Z,38.13
2022-10-17T21:31:24.354Z,38.17
2022-10-17T21:33:53.661Z,39.22
2022-10-17T21:36:21.397Z,39.65
2022-10-17T21:38:49.891Z,38.97
2022-10-17T21:41:19.602Z,39.97
2022-10-17T21:43:47.126Z,41.17
2022-10-17T21:46:16.318Z,39.60
2022-10-17T21:48:44.139Z,39.28
2022-10-17T21:51:14.079Z,38.00
2022-10-17T21:53:41.452Z,40.28
2022-10-17T21:56:14.217Z,40.95
2022-10-17T21:58:41.499Z,39.33
2022-10-17T22:01:12.681Z,39.55
2022-10-17T22:03:45.670Z,41.50
2022-10-17T22:06:38.663Z,40.22
2022-10-17T22:09:04.550Z,40.25
2022-10-17T22:11:33.949Z,39.00
2022-10-17T22:14:21.932Z,38.30
2022-10-17T22:16:49.564Z,40.15
2022-10-17T22:19:20.099Z,41.03
2022-10-17T22:21:47.075Z,39.08
2022-10-17T22:24:15.833Z,40.53
2022-10-17T22:26:44.425Z,40.92
2022-10-17T22:29:11.753Z,41.40
2022-10-17T22:31:39.238Z,38.75
2022-10-17T22:34:06.982Z,40.42
2022-10-17T22:36:34.488Z,41.67
2022-10-17T22:39:01.296Z,41.33
2022-10-17T22:41:28.061Z,42.97
2022-10-17T22:43:54.787Z,42.17
2022-10-17T22:46:21.627Z,43.92
2022-10-17T22:48:48.452Z,44.22
2022-10-17T22:51:15.498Z,43.00
2022-10-17T22:53:42.744Z,44.33
2022-10-17T22:56:19.928Z,45.05
2022-10-17T22:58:47.033Z,45.05
2022-10-17T23:01:20.232Z,43.83
2022-10-17T23:03:47.514Z,43.50
2022-10-17T23:06:14.645Z,42.13
2022-10-17T23:08:41.869Z,45.45
2022-10-17T23:11:09.256Z,42.95
2022-10-17T23:13:36.735Z,44.03
2022-10-17T23:16:03.730Z,43.92
2022-10-17T23:21:02.550Z,43.75
2022-10-17T23:23:29.256Z,43.38
2022-10-17T23:25:56.483Z,44.00
2022-10-17T23:28:23.229Z,44.47
2022-10-17T23:30:49.975Z,43.13
2022-10-17T23:33:16.649Z,42.40
2022-10-17T23:35:43.451Z,43.70
2022-10-17T23:38:10.419Z,43.33
2022-10-17T23:40:37.339Z,45.03
2022-10-17T23:43:04.551Z,44.10
2022-10-17T23:45:36.081Z,44.30
2022-10-17T23:48:04.882Z,45.50
2022-10-17T23:50:31.567Z,43.67
2022-10-17T23:52:58.280Z,41.95
2022-10-17T23:55:25.038Z,43.72
2022-10-17T23:57:51.661Z,41.83
